sensor_id;sensor_type;location;lat;lon;timestamp;temperature;humidity
71047;SHT31;58703;48.978;8.982;2023-05-10T00:01:55;12.82;99.99
71047;SHT31;58703;48.978;8.982;2023-05-10T00:04:21;12.85;99.99
71047;SHT31;58703;48.978;8.982;2023-05-10T00:06:48;12.82;99.99
71047;SHT31;58703;48.978;8.982;2023-05-10T00:09:15;12.76;99.99
71047;SHT31;58703;48.978;8.982;2023-05-10T00:11:41;12.75;99.99
71047;SHT31;58703;48.978;8.982;2023-05-10T00:14:08;12.73;99.99
71047;SHT31;58703;48.978;8.982;2023-05-10T00:16:34;12.70;99.99
71047;SHT31;58703;48.978;8.982;2023-05-10T00:19:01;12.69;99.99
71047;SHT31;58703;48.978;8.982;2023-05-10T00:21:27;12.63;99.99
71047;SHT31;58703;48.978;8.982;2023-05-10T00:23:54;12.65;99.99
71047;SHT31;58703;48.978;8.982;2023-05-10T00:26:21;12.62;99.99
71047;SHT31;58703;48.978;8.982;2023-05-10T00:28:48;12.55;99.99
71047;SHT31;58703;48.978;8.982;2023-05-10T00:31:13;12.53;99.99
71047;SHT31;58703;48.978;8.982;2023-05-10T00:33:41;12.49;99.99
71047;SHT31;58703;48.978;8.982;2023-05-10T00:36:07;12.46;99.99
71047;SHT31;58703;48.978;8.982;2023-05-10T00:38:34;12.42;99.99
71047;SHT31;58703;48.978;8.982;2023-05-10T00:41:01;12.41;99.99
71047;SHT31;58703;48.978;8.982;2023-05-10T00:43:28;12.35;99.99
71047;SHT31;58703;48.978;8.982;2023-05-10T00:45:55;12.32;99.99
71047;SHT31;58703;48.978;8.982;2023-05-10T00:48:21;12.35;99.99
71047;SHT31;58703;48.978;8.982;2023-05-10T00:50:48;12.31;99.99
71047;SHT31;58703;48.978;8.982;2023-05-10T00:53:15;12.29;99.99
71047;SHT31;58703;48.978;8.982;2023-05-10T00:55:42;12.26;99.99
71047;SHT31;58703;48.978;8.982;2023-05-10T00:58:09;12.36;99.99
71047;SHT31;58703;48.978;8.982;2023-05-10T01:00:36;12.42;99.99
71047;SHT31;58703;48.978;8.982;2023-05-10T01:03:04;12.39;99.99
71047;SHT31;58703;48.978;8.982;2023-05-10T01:05:29;12.39;99.99
71047;SHT31;58703;48.978;8.982;2023-05-10T01:07:56;12.41;99.99
71047;SHT31;58703;48.978;8.982;2023-05-10T01:10:23;12.42;99.99
71047;SHT31;58703;48.978;8.982;2023-05-10T01:12:50;12.46;99.99
71047;SHT31;58703;48.978;8.982;2023-05-10T01:15:17;12.39;99.99
71047;SHT31;58703;48.978;8.982;2023-05-10T01:17:46;12.49;99.99
71047;SHT31;58703;48.978;8.982;2023-05-10T01:20:14;12.48;99.99
71047;SHT31;58703;48.978;8.982;2023-05-10T01:34:09;12.50;99.99
71047;SHT31;58703;48.978;8.982;2023-05-10T01:36:43;12.56;99.81
71047;SHT31;58703;48.978;8.982;2023-05-10T01:39:22;12.53;99.99
71047;SHT31;58703;48.978;8.982;2023-05-10T01:42:11;12.53;99.99
71047;SHT31;58703;48.978;8.982;2023-05-10T01:44:55;12.46;99.99
71047;SHT31;58703;48.978;8.982;2023-05-10T01:47:35;12.49;99.99
71047;SHT31;58703;48.978;8.982;2023-05-10T01:50:04;12.50;99.99
71047;SHT31;58703;48.978;8.982;2023-05-10T01:52:34;12.53;99.99
71047;SHT31;58703;48.978;8.982;2023-05-10T01:55:06;12.55;99.96
71047;SHT31;58703;48.978;8.982;2023-05-10T01:57:34;12.52;99.99
71047;SHT31;58703;48.978;8.982;2023-05-10T02:00:03;12.50;99.99
71047;SHT31;58703;48.978;8.982;2023-05-10T02:02:36;12.55;99.99
71047;SHT31;58703;48.978;8.982;2023-05-10T02:05:05;12.50;99.99
71047;SHT31;58703;48.978;8.982;2023-05-10T02:07:35;12.44;99.99
71047;SHT31;58703;48.978;8.982;2023-05-10T02:10:06;12.49;99.99
71047;SHT31;58703;48.978;8.982;2023-05-10T02:12:53;12.53;99.99
71047;SHT31;58703;48.978;8.982;2023-05-10T02:15:22;12.50;99.99
71047;SHT31;58703;48.978;8.982;2023-05-10T02:17:50;12.45;99.99
71047;SHT31;58703;48.978;8.982;2023-05-10T02:20:19;12.42;99.99
71047;SHT31;58703;48.978;8.982;2023-05-10T02:22:48;12.48;99.99
71047;SHT31;58703;48.978;8.982;2023-05-10T02:25:17;12.45;99.99
71047;SHT31;58703;48.978;8.982;2023-05-10T02:27:46;12.42;99.99
71047;SHT31;58703;48.978;8.982;2023-05-10T02:30:14;12.46;99.99
71047;SHT31;58703;48.978;8.982;2023-05-10T02:32:42;12.45;99.99
71047;SHT31;58703;48.978;8.982;2023-05-10T02:35:10;12.52;99.99
71047;SHT31;58703;48.978;8.982;2023-05-10T02:37:38;12.58;99.99
71047;SHT31;58703;48.978;8.982;2023-05-10T02:40:07;12.56;99.99
71047;SHT31;58703;48.978;8.982;2023-05-10T02:42:37;12.58;99.99
71047;SHT31;58703;48.978;8.982;2023-05-10T02:45:07;12.59;99.99
71047;SHT31;58703;48.978;8.982;2023-05-10T02:47:36;12.58;99.99
71047;SHT31;58703;48.978;8.982;2023-05-10T02:50:03;12.53;99.99
71047;SHT31;58703;48.978;8.982;2023-05-10T02:52:38;12.53;99.99
71047;SHT31;58703;48.978;8.982;2023-05-10T02:55:09;12.52;99.99
71047;SHT31;58703;48.978;8.982;2023-05-10T02:57:41;12.59;99.99
71047;SHT31;58703;48.978;8.982;2023-05-10T03:00:10;12.58;99.99
71047;SHT31;58703;48.978;8.982;2023-05-10T03:02:36;12.58;99.99
71047;SHT31;58703;48.978;8.982;2023-05-10T03:05:03;12.55;99.99
71047;SHT31;58703;48.978;8.982;2023-05-10T03:07:30;12.59;99.99
71047;SHT31;58703;48.978;8.982;2023-05-10T03:09:57;12.62;99.99
71047;SHT31;58703;48.978;8.982;2023-05-10T03:20:49;12.68;99.99
71047;SHT31;58703;48.978;8.982;2023-05-10T03:23:35;12.63;99.99
71047;SHT31;58703;48.978;8.982;2023-05-10T03:26:04;12.59;99.99
71047;SHT31;58703;48.978;8.982;2023-05-10T03:28:33;12.58;99.99
71047;SHT31;58703;48.978;8.982;2023-05-10T03:31:02;12.58;99.99
71047;SHT31;58703;48.978;8.982;2023-05-10T03:33:30;12.65;99.99
71047;SHT31;58703;48.978;8.982;2023-05-10T03:35:58;12.69;99.99
71047;SHT31;58703;48.978;8.982;2023-05-10T03:38:24;12.69;99.99
71047;SHT31;58703;48.978;8.982;2023-05-10T03:40:50;12.68;99.99
71047;SHT31;58703;48.978;8.982;2023-05-10T03:43:17;12.70;99.99
71047;SHT31;58703;48.978;8.982;2023-05-10T03:45:44;12.73;99.99
71047;SHT31;58703;48.978;8.982;2023-05-10T03:48:10;12.69;99.99
71047;SHT31;58703;48.978;8.982;2023-05-10T03:50:37;12.73;99.99
71047;SHT31;58703;48.978;8.982;2023-05-10T03:53:04;12.75;99.92
71047;SHT31;58703;48.978;8.982;2023-05-10T03:55:30;12.76;99.99
71047;SHT31;58703;48.978;8.982;2023-05-10T03:57:59;12.73;99.99
71047;SHT31;58703;48.978;8.982;2023-05-10T04:00:25;12.70;99.99
71047;SHT31;58703;48.978;8.982;2023-05-10T04:02:51;12.79;99.32
71047;SHT31;58703;48.978;8.982;2023-05-10T04:05:18;12.75;99.91
71047;SHT31;58703;48.978;8.982;2023-05-10T04:07:45;12.77;99.47
71047;SHT31;58703;48.978;8.982;2023-05-10T04:10:13;12.70;99.99
71047;SHT31;58703;48.978;8.982;2023-05-10T04:12:39;12.68;99.99
71047;SHT31;58703;48.978;8.982;2023-05-10T04:15:06;12.76;98.82
71047;SHT31;58703;48.978;8.982;2023-05-10T04:17:33;12.76;99.30
71047;SHT31;58703;48.978;8.982;2023-05-10T04:19:58;12.70;99.99
71047;SHT31;58703;48.978;8.982;2023-05-10T04:22:25;12.66;99.65
71047;SHT31;58703;48.978;8.982;2023-05-10T04:24:51;12.72;98.74
71047;SHT31;58703;48.978;8.982;2023-05-10T04:27:18;12.72;99.16
71047;SHT31;58703;48.978;8.982;2023-05-10T04:29:45;12.66;98.88
71047;SHT31;58703;48.978;8.982;2023-05-10T04:32:11;12.75;98.90
71047;SHT31;58703;48.978;8.982;2023-05-10T04:34:39;12.75;98.52
71047;SHT31;58703;48.978;8.982;2023-05-10T04:37:09;12.70;99.26
71047;SHT31;58703;48.978;8.982;2023-05-10T04:39:36;12.73;98.88
71047;SHT31;58703;48.978;8.982;2023-05-10T04:42:03;12.76;98.56
71047;SHT31;58703;48.978;8.982;2023-05-10T04:44:32;12.72;99.31
71047;SHT31;58703;48.978;8.982;2023-05-10T04:46:59;12.66;99.10
71047;SHT31;58703;48.978;8.982;2023-05-10T04:49:26;12.60;99.71
71047;SHT31;58703;48.978;8.982;2023-05-10T04:51:51;12.62;99.41
71047;SHT31;58703;48.978;8.982;2023-05-10T04:54:17;12.72;98.69
71047;SHT31;58703;48.978;8.982;2023-05-10T04:56:42;12.69;99.13
71047;SHT31;58703;48.978;8.982;2023-05-10T04:59:08;12.69;98.82
71047;SHT31;58703;48.978;8.982;2023-05-10T05:01:35;12.72;98.85
71047;SHT31;58703;48.978;8.982;2023-05-10T05:04:00;12.75;98.93
71047;SHT31;58703;48.978;8.982;2023-05-10T05:06:27;12.76;98.74
71047;SHT31;58703;48.978;8.982;2023-05-10T05:08:54;12.73;99.04
71047;SHT31;58703;48.978;8.982;2023-05-10T05:11:21;12.82;98.23
71047;SHT31;58703;48.978;8.982;2023-05-10T05:13:48;12.86;98.92
71047;SHT31;58703;48.978;8.982;2023-05-10T05:16:13;12.86;98.76
71047;SHT31;58703;48.978;8.982;2023-05-10T05:18:40;12.90;99.07
71047;SHT31;58703;48.978;8.982;2023-05-10T05:21:20;12.93;98.83
71047;SHT31;58703;48.978;8.982;2023-05-10T05:23:46;12.92;98.36
71047;SHT31;58703;48.978;8.982;2023-05-10T05:26:13;12.93;98.33
71047;SHT31;58703;48.978;8.982;2023-05-10T05:28:41;12.96;98.77
71047;SHT31;58703;48.978;8.982;2023-05-10T05:31:08;12.97;98.63
71047;SHT31;58703;48.978;8.982;2023-05-10T05:33:34;13.00;98.33
71047;SHT31;58703;48.978;8.982;2023-05-10T05:36:01;13.07;98.44
71047;SHT31;58703;48.978;8.982;2023-05-10T05:38:27;13.07;98.53
71047;SHT31;58703;48.978;8.982;2023-05-10T05:40:54;13.17;98.87
71047;SHT31;58703;48.978;8.982;2023-05-10T05:43:21;13.17;98.31
71047;SHT31;58703;48.978;8.982;2023-05-10T05:45:47;13.16;97.79
71047;SHT31;58703;48.978;8.982;2023-05-10T05:48:13;13.23;98.95
71047;SHT31;58703;48.978;8.982;2023-05-10T05:50:39;13.23;97.65
71047;SHT31;58703;48.978;8.982;2023-05-10T05:53:06;13.23;97.31
71047;SHT31;58703;48.978;8.982;2023-05-10T05:55:33;13.26;97.66
71047;SHT31;58703;48.978;8.982;2023-05-10T05:58:00;13.21;97.74
71047;SHT31;58703;48.978;8.982;2023-05-10T06:00:27;13.31;98.33
71047;SHT31;58703;48.978;8.982;2023-05-10T06:02:54;13.31;97.72
71047;SHT31;58703;48.978;8.982;2023-05-10T06:05:21;13.34;97.65
71047;SHT31;58703;48.978;8.982;2023-05-10T06:07:47;13.36;97.40
71047;SHT31;58703;48.978;8.982;2023-05-10T06:10:14;13.34;96.76
71047;SHT31;58703;48.978;8.982;2023-05-10T06:12:40;13.40;96.72
71047;SHT31;58703;48.978;8.982;2023-05-10T06:15:07;13.48;97.19
71047;SHT31;58703;48.978;8.982;2023-05-10T06:17:33;13.53;97.30
71047;SHT31;58703;48.978;8.982;2023-05-10T06:20:00;13.46;96.31
71047;SHT31;58703;48.978;8.982;2023-05-10T06:22:25;13.53;96.09
71047;SHT31;58703;48.978;8.982;2023-05-10T06:24:51;13.55;96.00
71047;SHT31;58703;48.978;8.982;2023-05-10T06:27:17;13.60;95.92
71047;SHT31;58703;48.978;8.982;2023-05-10T06:29:44;13.70;95.59
71047;SHT31;58703;48.978;8.982;2023-05-10T06:32:11;13.75;95.41
71047;SHT31;58703;48.978;8.982;2023-05-10T06:34:38;13.67;94.75
71047;SHT31;58703;48.978;8.982;2023-05-10T06:37:05;13.78;94.42
71047;SHT31;58703;48.978;8.982;2023-05-10T06:39:31;13.82;94.77
71047;SHT31;58703;48.978;8.982;2023-05-10T06:41:58;13.89;94.13
71047;SHT31;58703;48.978;8.982;2023-05-10T06:44:23;14.01;94.42
71047;SHT31;58703;48.978;8.982;2023-05-10T06:46:50;14.02;93.50
71047;SHT31;58703;48.978;8.982;2023-05-10T06:49:19;14.28;94.51
71047;SHT31;58703;48.978;8.982;2023-05-10T06:51:44;14.26;93.54
71047;SHT31;58703;48.978;8.982;2023-05-10T06:54:11;14.15;92.99
71047;SHT31;58703;48.978;8.982;2023-05-10T06:56:37;14.19;92.15
71047;SHT31;58703;48.978;8.982;2023-05-10T06:59:04;14.25;90.95
71047;SHT31;58703;48.978;8.982;2023-05-10T07:01:32;14.22;92.56
71047;SHT31;58703;48.978;8.982;2023-05-10T07:03:58;14.25;92.34
71047;SHT31;58703;48.978;8.982;2023-05-10T07:06:24;14.22;92.50
71047;SHT31;58703;48.978;8.982;2023-05-10T07:08:51;14.32;92.26
71047;SHT31;58703;48.978;8.982;2023-05-10T07:11:17;14.28;91.32
71047;SHT31;58703;48.978;8.982;2023-05-10T07:13:43;14.47;92.26
71047;SHT31;58703;48.978;8.982;2023-05-10T07:16:11;14.64;91.38
71047;SHT31;58703;48.978;8.982;2023-05-10T07:18:37;14.63;90.34
71047;SHT31;58703;48.978;8.982;2023-05-10T07:21:03;14.56;90.99
71047;SHT31;58703;48.978;8.982;2023-05-10T07:23:30;14.63;91.36
71047;SHT31;58703;48.978;8.982;2023-05-10T07:25:56;14.46;89.70
71047;SHT31;58703;48.978;8.982;2023-05-10T07:28:24;14.36;88.37
71047;SHT31;58703;48.978;8.982;2023-05-10T07:30:51;14.42;89.93
71047;SHT31;58703;48.978;8.982;2023-05-10T07:33:16;14.32;89.73
71047;SHT31;58703;48.978;8.982;2023-05-10T07:35:43;14.32;90.97
71047;SHT31;58703;48.978;8.982;2023-05-10T07:38:08;14.47;89.46
71047;SHT31;58703;48.978;8.982;2023-05-10T07:40:38;14.69;89.78
71047;SHT31;58703;48.978;8.982;2023-05-10T07:43:04;14.57;90.22
71047;SHT31;58703;48.978;8.982;2023-05-10T07:45:30;14.42;88.97
71047;SHT31;58703;48.978;8.982;2023-05-10T07:47:56;14.46;89.43
71047;SHT31;58703;48.978;8.982;2023-05-10T07:50:21;14.40;87.86
71047;SHT31;58703;48.978;8.982;2023-05-10T07:52:47;14.56;89.42
71047;SHT31;58703;48.978;8.982;2023-05-10T07:55:14;14.77;89.56
71047;SHT31;58703;48.978;8.982;2023-05-10T07:57:40;14.83;87.25
71047;SHT31;58703;48.978;8.982;2023-05-10T08:00:07;14.91;87.13
71047;SHT31;58703;48.978;8.982;2023-05-10T08:02:35;14.90;86.73
71047;SHT31;58703;48.978;8.982;2023-05-10T08:05:02;14.70;87.12
71047;SHT31;58703;48.978;8.982;2023-05-10T08:07:27;14.88;87.56
71047;SHT31;58703;48.978;8.982;2023-05-10T08:09:53;14.70;88.24
71047;SHT31;58703;48.978;8.982;2023-05-10T08:12:19;14.59;86.58
71047;SHT31;58703;48.978;8.982;2023-05-10T08:14:46;15.00;87.87
71047;SHT31;58703;48.978;8.982;2023-05-10T08:17:13;14.98;86.24
71047;SHT31;58703;48.978;8.982;2023-05-10T08:19:38;15.01;87.90
71047;SHT31;58703;48.978;8.982;2023-05-10T08:22:04;15.08;87.72
71047;SHT31;58703;48.978;8.982;2023-05-10T08:24:30;14.97;86.16
71047;SHT31;58703;48.978;8.982;2023-05-10T08:26:56;15.17;85.42
71047;SHT31;58703;48.978;8.982;2023-05-10T08:29:21;15.25;85.02
71047;SHT31;58703;48.978;8.982;2023-05-10T08:31:47;15.23;85.90
71047;SHT31;58703;48.978;8.982;2023-05-10T08:34:13;15.70;86.20
71047;SHT31;58703;48.978;8.982;2023-05-10T08:36:40;15.69;85.16
71047;SHT31;58703;48.978;8.982;2023-05-10T08:39:06;15.27;84.27
71047;SHT31;58703;48.978;8.982;2023-05-10T08:41:33;15.14;84.34
71047;SHT31;58703;48.978;8.982;2023-05-10T08:43:59;15.42;84.64
71047;SHT31;58703;48.978;8.982;2023-05-10T08:46:28;15.58;84.76
71047;SHT31;58703;48.978;8.982;2023-05-10T08:48:54;15.54;85.20
71047;SHT31;58703;48.978;8.982;2023-05-10T08:51:27;15.39;85.51
71047;SHT31;58703;48.978;8.982;2023-05-10T08:53:55;15.00;87.12
71047;SHT31;58703;48.978;8.982;2023-05-10T08:56:23;14.69;88.80
71047;SHT31;58703;48.978;8.982;2023-05-10T08:58:50;14.29;88.53
71047;SHT31;58703;48.978;8.982;2023-05-10T09:01:18;14.18;89.78
71047;SHT31;58703;48.978;8.982;2023-05-10T09:03:46;14.36;90.23
71047;SHT31;58703;48.978;8.982;2023-05-10T09:06:14;14.44;88.51
71047;SHT31;58703;48.978;8.982;2023-05-10T09:08:45;14.64;87.33
71047;SHT31;58703;48.978;8.982;2023-05-10T09:11:12;14.83;86.05
71047;SHT31;58703;48.978;8.982;2023-05-10T09:13:39;15.00;85.08
71047;SHT31;58703;48.978;8.982;2023-05-10T09:16:06;15.59;85.24
71047;SHT31;58703;48.978;8.982;2023-05-10T09:18:33;15.78;82.93
71047;SHT31;58703;48.978;8.982;2023-05-10T09:21:00;16.29;81.77
71047;SHT31;58703;48.978;8.982;2023-05-10T09:23:26;16.33;83.66
71047;SHT31;58703;48.978;8.982;2023-05-10T09:26:05;16.06;81.34
71047;SHT31;58703;48.978;8.982;2023-05-10T09:28:53;15.88;83.79
71047;SHT31;58703;48.978;8.982;2023-05-10T09:31:19;15.14;83.48
71047;SHT31;58703;48.978;8.982;2023-05-10T09:33:47;15.12;84.37
71047;SHT31;58703;48.978;8.982;2023-05-10T09:36:15;15.44;82.56
71047;SHT31;58703;48.978;8.982;2023-05-10T09:38:51;15.31;81.15
71047;SHT31;58703;48.978;8.982;2023-05-10T09:41:21;15.88;81.45
71047;SHT31;58703;48.978;8.982;2023-05-10T09:43:48;16.26;80.76
71047;SHT31;58703;48.978;8.982;2023-05-10T09:46:15;16.39;80.28
71047;SHT31;58703;48.978;8.982;2023-05-10T09:48:46;16.37;77.27
71047;SHT31;58703;48.978;8.982;2023-05-10T09:51:23;16.61;81.23
71047;SHT31;58703;48.978;8.982;2023-05-10T09:54:11;16.19;80.00
71047;SHT31;58703;48.978;8.982;2023-05-10T09:56:39;16.07;77.03
71047;SHT31;58703;48.978;8.982;2023-05-10T09:59:12;16.47;78.05
71047;SHT31;58703;48.978;8.982;2023-05-10T10:01:38;16.74;76.98
71047;SHT31;58703;48.978;8.982;2023-05-10T10:04:07;16.57;75.46
71047;SHT31;58703;48.978;8.982;2023-05-10T10:06:38;16.60;76.64
71047;SHT31;58703;48.978;8.982;2023-05-10T10:09:06;16.46;76.81
71047;SHT31;58703;48.978;8.982;2023-05-10T10:11:32;16.64;75.83
71047;SHT31;58703;48.978;8.982;2023-05-10T10:13:58;16.80;76.59
71047;SHT31;58703;48.978;8.982;2023-05-10T10:16:24;16.82;79.36
71047;SHT31;58703;48.978;8.982;2023-05-10T10:18:50;16.78;79.85
71047;SHT31;58703;48.978;8.982;2023-05-10T10:21:17;16.29;80.31
71047;SHT31;58703;48.978;8.982;2023-05-10T10:23:44;16.50;80.96
71047;SHT31;58703;48.978;8.982;2023-05-10T10:26:11;16.23;79.66
71047;SHT31;58703;48.978;8.982;2023-05-10T10:34:11;15.21;85.47
71047;SHT31;58703;48.978;8.982;2023-05-10T10:36:46;14.76;85.24
71047;SHT31;58703;48.978;8.982;2023-05-10T10:39:14;13.99;86.51
71047;SHT31;58703;48.978;8.982;2023-05-10T10:41:55;13.61;86.28
71047;SHT31;58703;48.978;8.982;2023-05-10T10:44:34;13.31;87.68
71047;SHT31;58703;48.978;8.982;2023-05-10T10:52:30;13.99;84.69
71047;SHT31;58703;48.978;8.982;2023-05-10T10:55:18;14.63;82.82
71047;SHT31;58703;48.978;8.982;2023-05-10T10:57:55;14.87;82.71
71047;SHT31;58703;48.978;8.982;2023-05-10T11:00:37;15.17;81.99
71047;SHT31;58703;48.978;8.982;2023-05-10T11:03:10;14.91;82.15
71047;SHT31;58703;48.978;8.982;2023-05-10T11:05:46;15.54;80.60
71047;SHT31;58703;48.978;8.982;2023-05-10T11:08:25;15.63;79.57
71047;SHT31;58703;48.978;8.982;2023-05-10T11:11:05;16.33;79.58
71047;SHT31;58703;48.978;8.982;2023-05-10T11:13:45;17.21;78.66
71047;SHT31;58703;48.978;8.982;2023-05-10T11:16:22;17.29;78.02
71047;SHT31;58703;48.978;8.982;2023-05-10T11:21:25;17.16;75.94
71047;SHT31;58703;48.978;8.982;2023-05-10T11:23:56;16.50;76.40
71047;SHT31;58703;48.978;8.982;2023-05-10T11:26:32;16.80;76.70
71047;SHT31;58703;48.978;8.982;2023-05-10T11:29:00;17.53;76.20
71047;SHT31;58703;48.978;8.982;2023-05-10T11:31:28;16.77;75.04
71047;SHT31;58703;48.978;8.982;2023-05-10T11:33:58;16.64;77.14
71047;SHT31;58703;48.978;8.982;2023-05-10T11:36:33;16.61;76.08
71047;SHT31;58703;48.978;8.982;2023-05-10T11:39:00;16.77;74.06
71047;SHT31;58703;48.978;8.982;2023-05-10T11:41:28;16.87;74.28
71047;SHT31;58703;48.978;8.982;2023-05-10T11:43:56;16.72;73.17
71047;SHT31;58703;48.978;8.982;2023-05-10T11:46:25;16.96;72.84
71047;SHT31;58703;48.978;8.982;2023-05-10T11:48:55;17.01;72.23
71047;SHT31;58703;48.978;8.982;2023-05-10T11:51:23;16.64;74.31
71047;SHT31;58703;48.978;8.982;2023-05-10T11:53:55;17.40;72.04
71047;SHT31;58703;48.978;8.982;2023-05-10T11:56:21;17.19;72.13
71047;SHT31;58703;48.978;8.982;2023-05-10T11:58:57;16.77;74.77
71047;SHT31;58703;48.978;8.982;2023-05-10T12:01:26;17.19;73.92
71047;SHT31;58703;48.978;8.982;2023-05-10T12:03:53;16.78;73.75
71047;SHT31;58703;48.978;8.982;2023-05-10T12:06:19;16.23;74.54
71047;SHT31;58703;48.978;8.982;2023-05-10T12:08:47;17.01;71.61
71047;SHT31;58703;48.978;8.982;2023-05-10T12:11:14;16.98;69.03
71047;SHT31;58703;48.978;8.982;2023-05-10T12:13:43;17.32;72.85
71047;SHT31;58703;48.978;8.982;2023-05-10T12:16:23;16.63;71.63
71047;SHT31;58703;48.978;8.982;2023-05-10T12:18:51;16.20;71.75
71047;SHT31;58703;48.978;8.982;2023-05-10T12:21:19;16.09;71.77
71047;SHT31;58703;48.978;8.982;2023-05-10T12:23:50;16.00;75.01
71047;SHT31;58703;48.978;8.982;2023-05-10T12:26:15;15.81;72.67
71047;SHT31;58703;48.978;8.982;2023-05-10T12:28:41;15.86;73.36
71047;SHT31;58703;48.978;8.982;2023-05-10T12:31:08;16.74;74.40
71047;SHT31;58703;48.978;8.982;2023-05-10T12:33:43;16.92;73.04
71047;SHT31;58703;48.978;8.982;2023-05-10T12:36:11;16.54;70.25
71047;SHT31;58703;48.978;8.982;2023-05-10T12:38:45;16.80;72.83
71047;SHT31;58703;48.978;8.982;2023-05-10T12:41:15;16.50;70.68
71047;SHT31;58703;48.978;8.982;2023-05-10T12:43:41;15.96;72.48
71047;SHT31;58703;48.978;8.982;2023-05-10T12:46:14;16.20;71.24
71047;SHT31;58703;48.978;8.982;2023-05-10T12:48:42;16.09;72.65
71047;SHT31;58703;48.978;8.982;2023-05-10T12:51:09;16.47;72.16
71047;SHT31;58703;48.978;8.982;2023-05-10T12:53:38;16.31;72.47
71047;SHT31;58703;48.978;8.982;2023-05-10T12:56:04;16.46;73.93
71047;SHT31;58703;48.978;8.982;2023-05-10T12:58:31;16.12;73.34
71047;SHT31;58703;48.978;8.982;2023-05-10T13:00:59;16.61;73.88
71047;SHT31;58703;48.978;8.982;2023-05-10T13:03:26;16.44;72.72
71047;SHT31;58703;48.978;8.982;2023-05-10T13:05:52;16.34;72.84
71047;SHT31;58703;48.978;8.982;2023-05-10T13:08:19;16.57;72.60
71047;SHT31;58703;48.978;8.982;2023-05-10T13:10:46;16.31;72.76
71047;SHT31;58703;48.978;8.982;2023-05-10T13:13:13;16.30;71.45
71047;SHT31;58703;48.978;8.982;2023-05-10T13:15:39;16.68;71.85
71047;SHT31;58703;48.978;8.982;2023-05-10T13:18:06;16.72;70.93
71047;SHT31;58703;48.978;8.982;2023-05-10T13:20:32;16.81;73.28
71047;SHT31;58703;48.978;8.982;2023-05-10T13:22:57;17.18;70.57
71047;SHT31;58703;48.978;8.982;2023-05-10T13:25:23;17.65;69.78
71047;SHT31;58703;48.978;8.982;2023-05-10T13:27:49;17.60;71.06
71047;SHT31;58703;48.978;8.982;2023-05-10T13:30:14;17.47;69.99
71047;SHT31;58703;48.978;8.982;2023-05-10T13:32:41;17.21;71.16
71047;SHT31;58703;48.978;8.982;2023-05-10T13:35:08;16.88;71.11
71047;SHT31;58703;48.978;8.982;2023-05-10T13:37:34;17.31;70.84
71047;SHT31;58703;48.978;8.982;2023-05-10T13:40:03;17.23;68.19
71047;SHT31;58703;48.978;8.982;2023-05-10T13:42:30;17.56;68.35
71047;SHT31;58703;48.978;8.982;2023-05-10T13:44:59;17.46;68.38
71047;SHT31;58703;48.978;8.982;2023-05-10T13:47:26;18.03;67.71
71047;SHT31;58703;48.978;8.982;2023-05-10T13:49:52;18.11;66.80
71047;SHT31;58703;48.978;8.982;2023-05-10T13:52:18;18.07;66.39
71047;SHT31;58703;48.978;8.982;2023-05-10T13:54:44;18.62;62.72
71047;SHT31;58703;48.978;8.982;2023-05-10T13:57:09;18.73;61.96
71047;SHT31;58703;48.978;8.982;2023-05-10T13:59:38;18.68;65.07
71047;SHT31;58703;48.978;8.982;2023-05-10T14:02:05;18.37;61.40
71047;SHT31;58703;48.978;8.982;2023-05-10T14:04:31;18.64;63.17
71047;SHT31;58703;48.978;8.982;2023-05-10T14:06:58;17.90;64.20
71047;SHT31;58703;48.978;8.982;2023-05-10T14:09:25;17.72;63.68
71047;SHT31;58703;48.978;8.982;2023-05-10T14:11:50;17.52;63.88
71047;SHT31;58703;48.978;8.982;2023-05-10T14:14:16;16.75;64.70
71047;SHT31;58703;48.978;8.982;2023-05-10T14:16:44;17.11;66.39
71047;SHT31;58703;48.978;8.982;2023-05-10T14:19:10;16.61;66.11
71047;SHT31;58703;48.978;8.982;2023-05-10T14:21:37;16.87;67.77
71047;SHT31;58703;48.978;8.982;2023-05-10T14:24:05;17.09;66.24
71047;SHT31;58703;48.978;8.982;2023-05-10T14:26:33;16.92;65.17
71047;SHT31;58703;48.978;8.982;2023-05-10T14:29:01;17.21;65.90
71047;SHT31;58703;48.978;8.982;2023-05-10T14:31:28;17.69;66.49
71047;SHT31;58703;48.978;8.982;2023-05-10T14:33:56;17.70;66.02
71047;SHT31;58703;48.978;8.982;2023-05-10T14:36:24;17.63;66.06
71047;SHT31;58703;48.978;8.982;2023-05-10T14:38:51;17.12;65.40
71047;SHT31;58703;48.978;8.982;2023-05-10T14:41:17;16.87;65.31
71047;SHT31;58703;48.978;8.982;2023-05-10T14:43:44;16.95;67.59
71047;SHT31;58703;48.978;8.982;2023-05-10T14:46:11;16.58;65.67
71047;SHT31;58703;48.978;8.982;2023-05-10T14:48:38;16.54;65.59
71047;SHT31;58703;48.978;8.982;2023-05-10T14:51:03;16.68;65.57
71047;SHT31;58703;48.978;8.982;2023-05-10T14:53:29;17.15;65.53
71047;SHT31;58703;48.978;8.982;2023-05-10T14:55:55;17.67;65.82
71047;SHT31;58703;48.978;8.982;2023-05-10T14:58:22;17.02;66.23
71047;SHT31;58703;48.978;8.982;2023-05-10T15:00:47;16.81;65.69
71047;SHT31;58703;48.978;8.982;2023-05-10T15:03:14;16.94;65.38
71047;SHT31;58703;48.978;8.982;2023-05-10T15:05:41;16.96;65.72
71047;SHT31;58703;48.978;8.982;2023-05-10T15:08:08;16.81;64.63
71047;SHT31;58703;48.978;8.982;2023-05-10T15:10:36;17.39;65.62
71047;SHT31;58703;48.978;8.982;2023-05-10T15:13:03;17.50;65.61
71047;SHT31;58703;48.978;8.982;2023-05-10T15:15:30;17.67;64.82
71047;SHT31;58703;48.978;8.982;2023-05-10T15:17:56;17.66;64.44
71047;SHT31;58703;48.978;8.982;2023-05-10T15:20:22;17.31;65.82
71047;SHT31;58703;48.978;8.982;2023-05-10T15:22:49;17.52;66.48
71047;SHT31;58703;48.978;8.982;2023-05-10T15:25:16;17.11;64.28
71047;SHT31;58703;48.978;8.982;2023-05-10T15:27:42;16.91;66.14
71047;SHT31;58703;48.978;8.982;2023-05-10T15:30:09;17.01;66.09
71047;SHT31;58703;48.978;8.982;2023-05-10T15:32:36;17.11;65.36
71047;SHT31;58703;48.978;8.982;2023-05-10T15:35:04;16.71;64.94
71047;SHT31;58703;48.978;8.982;2023-05-10T15:37:29;16.65;65.38
71047;SHT31;58703;48.978;8.982;2023-05-10T15:39:55;16.48;66.20
71047;SHT31;58703;48.978;8.982;2023-05-10T15:42:31;16.57;65.64
71047;SHT31;58703;48.978;8.982;2023-05-10T15:44:57;16.48;66.70
71047;SHT31;58703;48.978;8.982;2023-05-10T15:47:25;16.75;66.64
71047;SHT31;58703;48.978;8.982;2023-05-10T15:49:51;16.71;65.45
71047;SHT31;58703;48.978;8.982;2023-05-10T15:52:16;17.09;66.05
71047;SHT31;58703;48.978;8.982;2023-05-10T15:54:43;17.62;65.91
71047;SHT31;58703;48.978;8.982;2023-05-10T15:57:09;17.26;64.88
71047;SHT31;58703;48.978;8.982;2023-05-10T15:59:34;17.53;65.28
71047;SHT31;58703;48.978;8.982;2023-05-10T16:02:00;17.46;63.58
71047;SHT31;58703;48.978;8.982;2023-05-10T16:04:27;17.67;62.95
71047;SHT31;58703;48.978;8.982;2023-05-10T16:06:54;17.39;63.60
71047;SHT31;58703;48.978;8.982;2023-05-10T16:09:20;17.39;62.72